Time;durP1;ratioP1;P1;durP2;ratioP2;P2;SDS_P1;SDS_P2;PMS_P1;PMS_P2;Temp;Humidity;BMP_temperature;BMP_pressure;BME280_temperature;BME280_humidity;BME280_pressure;Samples;Min_cycle;Max_cycle;Signal;HPM_P1;HPM_P2
2022/10/17 00:00:10;;;;;;;39.40;19.70;;;;;;;13.24;100.00;100772.47;4211455;28;22932;-67
2022/10/17 00:02:36;;;;;;;32.63;18.97;;;;;;;13.23;100.00;100778.81;4206922;28;21183;-66
2022/10/17 00:05:03;;;;;;;31.27;17.27;;;;;;;13.23;100.00;100787.69;4207045;28;21170;-69
2022/10/17 00:07:30;;;;;;;32.20;18.60;;;;;;;13.20;100.00;100790.63;4214014;28;20254;-66
2022/10/17 00:09:57;;;;;;;33.20;18.57;;;;;;;13.24;100.00;100788.50;4206949;28;20262;-67
2022/10/17 00:12:24;;;;;;;36.40;19.83;;;;;;;13.21;100.00;100791.50;4209425;28;21043;-68
2022/10/17 00:14:50;;;;;;;32.33;18.87;;;;;;;13.42;100.00;100781.34;4213112;28;21079;-66
2022/10/17 00:17:17;;;;;;;35.10;19.60;;;;;;;13.35;100.00;100787.47;4218843;28;23719;-69
2022/10/17 00:19:43;;;;;;;32.83;19.80;;;;;;;13.48;100.00;100775.34;4216534;28;23587;-67
2022/10/17 00:22:10;;;;;;;37.93;19.33;;;;;;;13.39;100.00;100784.34;4203748;28;26892;-67
2022/10/17 00:24:36;;;;;;;32.40;18.80;;;;;;;13.23;100.00;100785.00;4202570;28;22953;-66
2022/10/17 00:27:03;;;;;;;35.97;19.70;;;;;;;13.43;100.00;100780.34;4210702;28;20231;-67
2022/10/17 00:29:30;;;;;;;33.67;18.50;;;;;;;13.42;100.00;100773.31;4218801;28;20547;-66
2022/10/17 00:31:57;;;;;;;31.03;19.17;;;;;;;13.25;100.00;100775.00;4206546;28;21553;-68
2022/10/17 00:34:24;;;;;;;41.43;20.47;;;;;;;13.29;100.00;100788.91;4208676;28;22747;-66
2022/10/17 00:36:50;;;;;;;34.37;19.40;;;;;;;13.21;100.00;100794.16;4222755;28;20777;-67
2022/10/17 00:39:17;;;;;;;35.73;19.40;;;;;;;13.16;100.00;100793.75;4231526;28;20418;-66
2022/10/17 00:41:43;;;;;;;34.77;19.73;;;;;;;13.09;100.00;100805.09;4214798;28;20315;-66
2022/10/17 00:44:28;;;;;;;38.50;20.50;;;;;;;13.03;100.00;100805.69;4218659;28;20553;-66
2022/10/17 00:47:03;;;;;;;32.83;19.40;;;;;;;12.99;100.00;100798.94;4226893;28;20421;-66
2022/10/17 00:49:33;;;;;;;33.30;18.37;;;;;;;13.01;100.00;100804.16;4228112;28;20226;-65
2022/10/17 00:52:03;;;;;;;38.33;19.77;;;;;;;13.10;100.00;100797.91;4201179;28;20239;-67
2022/10/17 00:54:33;;;;;;;35.57;20.03;;;;;;;13.09;100.00;100794.41;4218667;28;20239;-67
2022/10/17 00:57:00;;;;;;;36.93;20.77;;;;;;;13.13;100.00;100797.59;4222538;28;20418;-68
2022/10/17 00:59:27;;;;;;;33.57;18.87;;;;;;;13.19;100.00;100791.63;4213015;28;22988;-66
2022/10/17 01:02:04;;;;;;;32.43;19.83;;;;;;;13.16;100.00;100793.75;4222553;28;20306;-67
2022/10/17 01:04:31;;;;;;;33.73;19.80;;;;;;;13.12;100.00;100792.41;4236604;28;20249;-66
2022/10/17 01:06:58;;;;;;;35.83;20.20;;;;;;;13.05;100.00;100792.19;4222660;28;23600;-67
2022/10/17 01:09:25;;;;;;;36.20;18.83;;;;;;;13.09;100.00;100793.56;4213474;28;20622;-67
2022/10/17 01:12:01;;;;;;;33.23;19.73;;;;;;;13.12;100.00;100792.41;4216433;28;22995;-66
2022/10/17 01:14:42;;;;;;;35.63;20.87;;;;;;;13.09;100.00;100799.72;4217886;28;20246;-68
2022/10/17 01:17:28;;;;;;;35.70;19.63;;;;;;;13.07;100.00;100806.22;4214054;28;20409;-64
2022/10/17 01:20:23;;;;;;;44.40;21.20;;;;;;;13.10;100.00;100801.41;4244722;28;20375;-65
2022/10/17 01:23:04;;;;;;;38.13;19.67;;;;;;;13.27;100.00;100799.78;4227692;28;20720;-65
2022/10/17 01:25:50;;;;;;;39.67;20.23;;;;;;;13.15;100.00;100792.94;4222602;28;20434;-65
2022/10/17 01:28:41;;;;;;;39.53;20.47;;;;;;;13.15;100.00;100779.56;4233309;28;20227;-66
2022/10/17 01:31:14;;;;;;;31.10;19.43;;;;;;;13.23;100.00;100782.34;4215944;28;20248;-66
2022/10/17 01:34:00;;;;;;;38.77;20.33;;;;;;;13.13;100.00;100786.91;4209399;28;20724;-65
2022/10/17 01:36:42;;;;;;;34.77;19.40;;;;;;;13.09;100.00;100783.72;4221939;28;21119;-65
2022/10/17 01:39:13;;;;;;;36.17;18.77;;;;;;;13.14;100.00;100790.44;4203914;28;21185;-66
2022/10/17 01:42:04;;;;;;;37.20;19.17;;;;;;;13.17;100.00;100792.78;4206491;28;20255;-66
2022/10/17 01:44:59;;;;;;;38.27;20.00;;;;;;;13.18;100.00;100791.78;4233266;28;23859;-65
2022/10/17 01:47:40;;;;;;;33.33;19.20;;;;;;;13.38;100.00;100796.00;4219484;28;20231;-65
2022/10/17 01:50:14;;;;;;;35.67;21.17;;;;;;;13.25;100.00;100795.53;4195170;28;20275;-67
2022/10/17 01:52:44;;;;;;;39.43;20.97;;;;;;;13.21;100.00;100791.50;4214953;28;20232;-64
2022/10/17 01:55:32;;;;;;;33.17;20.50;;;;;;;13.07;100.00;100796.38;4221381;28;20237;-65
2022/10/17 01:58:04;;;;;;;33.10;19.50;;;;;;;13.08;100.00;100795.38;4219389;28;20529;-66
2022/10/17 02:00:31;;;;;;;38.93;20.40;;;;;;;13.07;100.00;100796.38;4221592;28;20302;-65
2022/10/17 02:03:00;;;;;;;36.30;20.10;;;;;;;13.09;100.00;100797.06;4230012;28;23727;-67
2022/10/17 02:05:31;;;;;;;35.57;20.77;;;;;;;13.17;100.00;100803.47;4208118;28;21150;-64
2022/10/17 02:07:57;;;;;;;41.13;21.60;;;;;;;13.25;100.00;100793.72;4225198;28;20356;-66
2022/10/17 02:10:34;;;;;;;36.03;22.07;;;;;;;12.97;100.00;100794.75;4217535;28;20757;-66
2022/10/17 02:13:13;;;;;;;32.17;20.00;;;;;;;12.90;100.00;100791.88;4219797;28;20230;-64
2022/10/17 02:16:07;;;;;;;34.00;18.97;;;;;;;12.80;100.00;100786.56;4224880;28;20349;-68
2022/10/17 02:18:47;;;;;;;36.87;21.40;;;;;;;12.90;100.00;100794.53;4220902;28;21122;-65
2022/10/17 02:21:18;;;;;;;40.73;21.00;;;;;;;12.83;100.00;100793.44;4219518;28;20276;-66
2022/10/17 02:23:51;;;;;;;40.23;21.80;;;;;;;12.78;100.00;100796.59;4227055;28;20227;-65
2022/10/17 02:26:25;;;;;;;36.97;20.17;;;;;;;12.76;100.00;100803.03;4217575;28;20302;-66
2022/10/17 02:29:04;;;;;;;35.40;19.67;;;;;;;12.67;100.00;100800.31;4237668;28;20237;-66
2022/10/17 02:31:37;;;;;;;41.27;21.27;;;;;;;12.63;100.00;100806.91;4227825;28;20225;-65
2022/10/17 02:34:06;;;;;;;34.83;21.83;;;;;;;12.65;100.00;100812.97;4228141;28;23504;-66
2022/10/17 02:36:38;;;;;;;39.10;22.00;;;;;;;12.87;100.00;100825.03;4221316;28;20677;-66
2022/10/17 02:39:06;;;;;;;37.97;21.47;;;;;;;13.01;100.00;100820.19;4218904;28;20229;-65
2022/10/17 02:41:34;;;;;;;38.90;21.27;;;;;;;12.87;100.00;100827.72;4205519;28;20324;-65
2022/10/17 02:44:01;;;;;;;36.30;21.33;;;;;;;12.77;100.00;100831.44;4188289;28;26276;-66
2022/10/17 02:46:28;;;;;;;37.07;20.97;;;;;;;12.84;100.00;100837.88;4196896;28;20691;-66
2022/10/17 02:49:06;;;;;;;37.43;20.60;;;;;;;12.79;100.00;100826.81;4198672;28;22982;-65
2022/10/17 02:51:41;;;;;;;36.17;19.77;;;;;;;12.92;100.00;100835.28;4208192;28;20345;-66
2022/10/17 02:54:26;;;;;;;40.73;21.40;;;;;;;12.72;100.00;100836.41;4205055;28;20228;-66
2022/10/17 02:57:06;;;;;;;41.23;21.30;;;;;;;12.59;100.00;100850.91;4216485;28;20242;-66
2022/10/17 02:59:33;;;;;;;35.57;20.23;;;;;;;12.55;100.00;100854.91;4224844;28;22453;-66
2022/10/17 03:02:05;;;;;;;37.37;21.27;;;;;;;12.48;100.00;100859.13;4193888;28;20243;-66
2022/10/17 03:04:33;;;;;;;33.17;20.30;;;;;;;12.46;100.00;100874.47;4202613;28;21782;-65
2022/10/17 03:06:59;;;;;;;40.30;21.70;;;;;;;12.43;100.00;100866.72;4221460;28;22229;-66
2022/10/17 03:09:26;;;;;;;40.93;22.10;;;;;;;12.78;100.00;100870.50;4216797;28;22136;-66
2022/10/17 03:11:52;;;;;;;35.80;21.33;;;;;;;12.69;100.00;100869.59;4222958;28;20641;-65
2022/10/17 03:14:19;;;;;;;40.20;21.10;;;;;;;12.67;100.00;100868.88;4216234;28;20252;-66
2022/10/17 03:16:46;;;;;;;39.73;22.20;;;;;;;12.57;100.00;100863.59;4205805;28;20296;-67
2022/10/17 03:19:12;;;;;;;38.57;21.77;;;;;;;12.67;100.00;100869.72;4220479;28;20239;-64
2022/10/17 03:21:39;;;;;;;40.03;21.77;;;;;;;12.62;100.00;100871.16;4213142;28;21133;-65
2022/10/17 03:24:05;;;;;;;38.23;21.10;;;;;;;12.68;100.00;100876.72;4207664;28;20666;-64
2022/10/17 03:26:32;;;;;;;37.53;21.93;;;;;;;12.63;100.00;100870.16;4211247;28;20236;-65
2022/10/17 03:28:59;;;;;;;37.83;22.07;;;;;;;12.76;100.00;100864.47;4215793;28;20238;-66
2022/10/17 03:31:25;;;;;;;36.30;21.43;;;;;;;12.82;100.00;100866.56;4219374;28;20351;-66
2022/10/17 03:33:52;;;;;;;36.33;20.73;;;;;;;12.76;100.00;100865.34;4210902;28;20336;-65
2022/10/17 03:36:18;;;;;;;42.47;22.83;;;;;;;12.75;100.00;100870.81;4225040;28;20465;-65
2022/10/17 03:38:46;;;;;;;38.20;22.40;;;;;;;12.82;100.00;100871.91;4219219;28;22494;-65
2022/10/17 03:41:12;;;;;;;37.83;22.27;;;;;;;12.87;100.00;100864.28;4227280;28;20407;-66
2022/10/17 03:43:39;;;;;;;41.53;21.93;;;;;;;12.97;100.00;100865.06;4215796;28;20389;-63
2022/10/17 03:46:06;;;;;;;38.83;21.27;;;;;;;13.04;100.00;100855.47;4242536;28;20246;-65
2022/10/17 03:48:32;;;;;;;35.47;21.07;;;;;;;13.16;100.00;100853.41;4227516;28;20289;-66
2022/10/17 03:51:04;;;;;;;37.33;20.20;;;;;;;13.13;100.00;100861.72;4225355;28;20634;-65
2022/10/17 03:53:31;;;;;;;39.93;22.13;;;;;;;13.02;100.00;100865.47;4200971;28;20318;-64
2022/10/17 03:56:14;;;;;;;38.07;21.60;;;;;;;13.06;100.00;100871.31;4229213;28;20235;-64
2022/10/17 03:58:41;;;;;;;39.27;21.97;;;;;;;13.01;100.00;100874.44;4234473;28;20296;-65
2022/10/17 04:01:09;;;;;;;39.73;22.27;;;;;;;13.08;100.00;100880.88;4224050;28;20233;-65
2022/10/17 04:03:36;;;;;;;40.60;23.10;;;;;;;13.09;100.00;100882.56;4222003;28;20244;-65
2022/10/17 04:06:03;;;;;;;48.43;23.30;;;;;;;13.13;100.00;100879.59;4221447;28;20260;-66
2022/10/17 04:08:31;;;;;;;37.77;23.27;;;;;;;13.06;100.00;100887.34;4223995;28;20259;-66
2022/10/17 04:11:01;;;;;;;40.70;22.07;;;;;;;13.08;100.00;100888.88;4227468;28;22222;-66
2022/10/17 04:13:28;;;;;;;37.13;21.23;;;;;;;13.19;100.00;100889.69;4226643;28;20226;-64
2022/10/17 04:16:00;;;;;;;40.43;22.27;;;;;;;13.20;100.00;100891.34;4235517;28;23438;-65
2022/10/17 04:18:27;;;;;;;37.80;21.47;;;;;;;13.21;100.00;100901.06;4227222;28;21213;-64
2022/10/17 04:20:54;;;;;;;38.63;22.17;;;;;;;13.25;100.00;100891.72;4209782;28;20239;-65
2022/10/17 04:23:21;;;;;;;34.50;21.43;;;;;;;13.29;100.00;100896.66;4221693;28;21135;-67
2022/10/17 04:25:48;;;;;;;33.93;20.27;;;;;;;13.25;100.00;100884.56;4229512;28;22658;-65
2022/10/17 04:28:14;;;;;;;40.43;21.87;;;;;;;13.17;100.00;100886.31;4240896;28;24364;-66
2022/10/17 04:30:41;;;;;;;42.00;22.37;;;;;;;13.01;100.00;100881.63;4226182;28;20765;-65
2022/10/17 04:33:10;;;;;;;36.93;22.27;;;;;;;13.07;100.00;100879.19;4223863;28;20230;-64
2022/10/17 04:35:37;;;;;;;43.80;23.50;;;;;;;13.02;100.00;100881.50;4240747;28;20729;-66
2022/10/17 04:38:03;;;;;;;39.23;22.57;;;;;;;12.98;100.00;100890.78;4235700;28;20259;-65
2022/10/17 04:40:31;;;;;;;42.20;23.23;;;;;;;13.04;100.00;100884.84;4240110;28;20243;-66
2022/10/17 04:42:57;;;;;;;37.23;22.30;;;;;;;12.95;100.00;100887.59;4223267;28;20231;-65
2022/10/17 04:45:24;;;;;;;50.00;25.57;;;;;;;12.91;100.00;100886.19;4235431;28;20227;-65
2022/10/17 04:47:50;;;;;;;41.50;23.30;;;;;;;12.87;100.00;100896.31;4227683;28;20578;-65
2022/10/17 04:50:17;;;;;;;42.17;23.50;;;;;;;12.86;100.00;100906.16;4232373;28;21282;-67
2022/10/17 04:52:43;;;;;;;38.87;22.63;;;;;;;12.86;100.00;100905.34;4224384;28;20238;-66
2022/10/17 04:55:10;;;;;;;45.17;24.43;;;;;;;12.90;100.00;100917.41;4224622;28;20920;-67
2022/10/17 04:57:36;;;;;;;46.40;23.30;;;;;;;12.94;100.00;100923.28;4228977;28;20279;-65
2022/10/17 05:00:03;;;;;;;37.33;22.30;;;;;;;12.91;100.00;100924.44;4225845;28;22176;-66
2022/10/17 05:02:31;;;;;;;43.70;23.43;;;;;;;12.83;100.00;100926.97;4231771;28;20837;-65
2022/10/17 05:04:57;;;;;;;40.90;21.77;;;;;;;12.81;100.00;100931.66;4225369;28;20606;-66
2022/10/17 05:07:24;;;;;;;38.37;21.70;;;;;;;12.81;100.00;100927.16;4226760;28;20299;-67
2022/10/17 05:09:51;;;;;;;42.77;22.97;;;;;;;12.86;100.00;100932.06;4237504;28;22060;-65
2022/10/17 05:12:17;;;;;;;40.47;23.40;;;;;;;12.82;100.00;100941.34;4208815;28;20238;-67
2022/10/17 05:14:44;;;;;;;42.33;23.77;;;;;;;12.83;100.00;100943.00;4226720;28;20232;-67
2022/10/17 05:17:10;;;;;;;47.40;23.03;;;;;;;12.87;100.00;100944.41;4227124;28;20227;-65
2022/10/17 05:19:37;;;;;;;45.60;23.33;;;;;;;12.86;100.00;100940.91;4238920;28;20229;-66
2022/10/17 05:22:04;;;;;;;43.07;23.60;;;;;;;13.05;100.00;100947.97;4232128;28;20259;-67
2022/10/17 05:24:31;;;;;;;44.07;22.60;;;;;;;13.04;100.00;100934.75;4244308;28;21538;-66
2022/10/17 05:26:58;;;;;;;42.10;22.83;;;;;;;12.99;100.00;100940.53;4255145;28;20305;-65
2022/10/17 05:29:24;;;;;;;39.27;22.83;;;;;;;12.93;100.00;100946.50;4242722;28;20238;-65
2022/10/17 05:31:51;;;;;;;40.93;21.30;;;;;;;12.94;100.00;100956.19;4245312;28;20240;-64
2022/10/17 05:34:18;;;;;;;40.57;22.07;;;;;;;12.94;100.00;100964.19;4258055;28;23656;-65
2022/10/17 05:36:44;;;;;;;44.23;23.23;;;;;;;12.96;100.00;100978.25;4253546;28;20386;-65
2022/10/17 05:39:13;;;;;;;44.33;23.20;;;;;;;12.98;100.00;100978.94;4250216;28;20378;-67
2022/10/17 05:41:40;;;;;;;38.33;22.90;;;;;;;13.06;100.00;100996.91;4230836;28;21726;-65
2022/10/17 05:44:06;;;;;;;42.63;23.60;;;;;;;13.06;100.00;100992.44;4228817;28;20299;-66
2022/10/17 05:46:33;;;;;;;55.10;25.40;;;;;;;13.19;100.00;100992.06;4240562;28;20297;-69
2022/10/17 05:48:59;;;;;;;45.97;22.70;;;;;;;13.38;100.00;100991.16;4230690;28;20412;-66
2022/10/17 05:51:26;;;;;;;51.40;23.40;;;;;;;13.28;100.00;100990.38;4250692;28;20295;-66
2022/10/17 05:53:53;;;;;;;40.07;22.30;;;;;;;13.31;100.00;100990.06;4241399;28;20307;-66
2022/10/17 05:56:19;;;;;;;36.00;21.10;;;;;;;13.44;100.00;100987.06;4233361;28;20244;-65
2022/10/17 05:58:46;;;;;;;41.07;22.40;;;;;;;13.44;100.00;100990.56;4243314;28;20350;-69
2022/10/17 06:01:20;;;;;;;42.83;22.87;;;;;;;13.46;100.00;100972.53;4222792;28;20231;-68
2022/10/17 06:03:47;;;;;;;41.37;21.90;;;;;;;13.45;100.00;100975.34;4254843;28;20241;-65
2022/10/17 06:06:14;;;;;;;48.27;22.47;;;;;;;13.47;100.00;100984.91;4227530;28;23075;-67
2022/10/17 06:08:41;;;;;;;37.57;22.20;;;;;;;13.53;100.00;100988.81;4224016;28;20291;-68
2022/10/17 06:11:08;;;;;;;43.23;22.50;;;;;;;13.59;100.00;101003.41;4219491;28;20250;-64
2022/10/17 06:13:37;;;;;;;39.87;22.53;;;;;;;13.62;100.00;101006.63;4233657;28;20235;-66
2022/10/17 06:16:04;;;;;;;38.77;21.60;;;;;;;13.73;100.00;101011.75;4244528;28;20345;-69
2022/10/17 06:18:31;;;;;;;44.53;23.17;;;;;;;13.75;100.00;101008.09;4243418;28;20336;-72
2022/10/17 06:21:05;;;;;;;38.20;22.10;;;;;;;13.84;100.00;101002.69;4232714;28;21809;-71
2022/10/17 06:23:31;;;;;;;39.67;22.07;;;;;;;13.98;100.00;100997.78;4238042;28;21119;-67
2022/10/17 06:26:02;;;;;;;43.47;22.60;;;;;;;13.97;100.00;100996.09;4227491;28;23019;-64
2022/10/17 06:28:29;;;;;;;36.70;20.73;;;;;;;13.96;100.00;101007.81;4236351;28;20313;-68
2022/10/17 06:30:56;;;;;;;44.30;22.40;;;;;;;14.08;100.00;101014.59;4242146;28;20326;-67
2022/10/17 06:33:23;;;;;;;43.63;22.63;;;;;;;14.14;100.00;101017.50;4254067;28;20423;-66
2022/10/17 06:35:54;;;;;;;45.90;23.07;;;;;;;14.32;100.00;101017.47;4237711;28;20645;-65
2022/10/17 06:38:21;;;;;;;55.43;28.60;;;;;;;14.42;100.00;101020.09;4240271;28;20342;-67
2022/10/17 06:40:48;;;;;;;40.37;22.47;;;;;;;14.60;99.74;101027.25;4254229;28;22894;-69
2022/10/17 06:43:14;;;;;;;44.83;22.80;;;;;;;14.75;97.58;101026.53;4253419;28;20239;-66
2022/10/17 06:45:41;;;;;;;49.37;22.23;;;;;;;14.77;97.50;101029.03;4300106;28;20238;-66
2022/10/17 06:48:07;;;;;;;43.53;23.67;;;;;;;14.76;97.27;101030.88;4230166;28;21115;-66
2022/10/17 06:50:34;;;;;;;49.43;24.03;;;;;;;14.73;97.10;101031.22;4252963;28;21908;-69
2022/10/17 06:53:01;;;;;;;47.47;22.13;;;;;;;14.87;96.52;101043.19;4245963;28;20306;-65
2022/10/17 06:55:27;;;;;;;43.93;21.60;;;;;;;15.00;95.91;101040.06;4221063;28;22241;-67
2022/10/17 06:57:55;;;;;;;40.83;21.97;;;;;;;15.10;94.66;101042.63;4230307;28;20320;-66
2022/10/17 07:00:22;;;;;;;40.43;21.40;;;;;;;15.11;94.13;101045.16;4250075;28;20351;-64
2022/10/17 07:02:48;;;;;;;46.33;22.57;;;;;;;15.21;94.20;101050.41;4290853;28;20556;-68
2022/10/17 07:05:15;;;;;;;44.13;22.20;;;;;;;15.31;93.42;101055.63;4235144;28;20299;-65
2022/10/17 07:07:42;;;;;;;47.73;21.67;;;;;;;15.39;92.20;101050.31;4253187;28;20471;-65
2022/10/17 07:10:11;;;;;;;40.53;21.27;;;;;;;15.50;91.95;101057.22;4233517;28;20599;-68
2022/10/17 07:12:38;;;;;;;45.10;22.17;;;;;;;15.64;91.27;101062.00;4224808;28;20238;-70
2022/10/17 07:15:05;;;;;;;46.60;22.07;;;;;;;15.73;90.25;101068.25;4229793;28;20436;-68
2022/10/17 07:17:31;;;;;;;46.00;20.87;;;;;;;15.73;90.81;101058.38;4239795;28;20312;-67
2022/10/17 07:19:58;;;;;;;38.97;20.57;;;;;;;15.81;89.80;101063.75;4237706;28;21115;-65
2022/10/17 07:22:24;;;;;;;40.33;21.93;;;;;;;15.89;89.26;101054.88;4225305;28;20958;-66
2022/10/17 07:24:51;;;;;;;36.60;21.37;;;;;;;16.09;89.09;101043.84;4222531;28;20357;-67
2022/10/17 07:27:18;;;;;;;36.83;20.03;;;;;;;16.35;87.24;101049.88;4218942;28;20598;-66
2022/10/17 07:29:44;;;;;;;37.53;20.87;;;;;;;16.58;85.64;101047.38;4224575;28;20286;-69
2022/10/17 07:32:11;;;;;;;37.07;20.33;;;;;;;16.85;84.19;101050.72;4230254;28;22025;-67
2022/10/17 07:34:37;;;;;;;33.47;19.80;;;;;;;17.21;82.06;101061.91;4271434;28;20246;-67
2022/10/17 07:37:05;;;;;;;38.63;19.03;;;;;;;17.86;79.22;101074.25;4221467;28;20235;-65
2022/10/17 07:39:34;;;;;;;34.73;18.63;;;;;;;19.43;71.20;101082.66;4243912;28;20448;-65
2022/10/17 07:42:00;;;;;;;38.63;18.33;;;;;;;21.12;62.81;101098.50;4256420;28;20235;-66
2022/10/17 07:44:27;;;;;;;35.17;18.60;;;;;;;22.45;56.47;101113.50;4235355;28;20302;-67
2022/10/17 07:46:54;;;;;;;28.43;16.83;;;;;;;23.46;50.32;101120.53;4221014;28;20234;-70
2022/10/17 07:49:21;;;;;;;42.10;16.73;;;;;;;24.45;47.08;101137.47;4247618;28;21213;-65
2022/10/17 07:51:48;;;;;;;28.60;17.43;;;;;;;25.00;44.80;101140.38;4262776;28;20274;-69
2022/10/17 07:54:15;;;;;;;35.50;17.63;;;;;;;25.45;43.24;101137.47;4263870;28;22122;-68
2022/10/17 07:56:42;;;;;;;25.33;16.20;;;;;;;26.61;39.92;101139.34;4278720;28;22921;-71
2022/10/17 07:59:09;;;;;;;32.03;16.67;;;;;;;27.40;38.49;101150.00;4248881;28;21471;-72
2022/10/17 08:01:36;;;;;;;31.27;16.73;;;;;;;28.35;36.45;101154.09;4270676;28;20250;-73
2022/10/17 08:04:03;;;;;;;28.63;17.63;;;;;;;28.11;35.85;101156.94;4273454;28;22707;-72
2022/10/17 08:06:32;;;;;;;28.50;17.20;;;;;;;26.29;38.53;101142.28;4255409;28;20249;-72
2022/10/17 08:09:00;;;;;;;37.83;18.07;;;;;;;23.88;45.13;101134.66;4254882;28;22327;-70
2022/10/17 08:11:27;;;;;;;28.30;17.60;;;;;;;23.16;49.02;101126.44;4269039;28;20577;-73
2022/10/17 08:13:53;;;;;;;38.00;19.60;;;;;;;23.15;49.25;101121.22;4256765;28;20235;-79
2022/10/17 08:16:20;;;;;;;36.53;19.80;;;;;;;24.40;45.53;101140.84;4263554;28;20469;-64
2022/10/17 08:18:46;;;;;;;33.43;19.73;;;;;;;25.40;43.37;101147.38;4273234;28;25922;-70
2022/10/17 08:21:19;;;;;;;32.87;19.60;;;;;;;27.16;38.67;101158.16;4247567;28;20596;-70
2022/10/17 08:23:45;;;;;;;33.40;18.17;;;;;;;27.81;37.65;101164.53;4281012;28;20635;-68
2022/10/17 08:26:15;;;;;;;29.73;18.40;;;;;;;28.51;35.10;101169.75;4257111;28;20268;-66
2022/10/17 08:28:42;;;;;;;39.17;19.45;;;;;;;28.90;34.06;101174.53;4247030;28;20799;-69
2022/10/17 08:31:12;;;;;;;30.40;19.47;;;;;;;28.42;35.17;101163.84;4213385;28;20376;-69
2022/10/17 08:33:39;;;;;;;34.73;18.10;;;;;;;28.09;35.31;101163.75;4269992;28;20230;-68
2022/10/17 08:36:07;;;;;;;29.23;19.03;;;;;;;28.15;35.07;101163.59;4279836;28;21544;-70
2022/10/17 08:38:35;;;;;;;32.70;20.23;;;;;;;27.82;35.54;101166.19;4299517;28;20240;-70
2022/10/17 08:41:10;;;;;;;34.37;21.17;;;;;;;28.07;36.11;101153.03;4232612;28;22075;-58
2022/10/17 08:43:54;;;;;;;35.77;20.60;;;;;;;28.98;34.14;101165.88;4241140;28;21874;-57
2022/10/17 08:46:20;;;;;;;33.37;18.50;;;;;;;29.87;32.19;101179.53;4285204;28;20267;-63
2022/10/17 08:48:48;;;;;;;36.53;17.77;;;;;;;28.78;33.67;101156.28;4200001;28;21436;-69
2022/10/17 08:51:20;;;;;;;32.97;17.67;;;;;;;26.37;38.67;101141.16;4208630;28;20234;-71
2022/10/17 08:53:48;;;;;;;32.80;17.37;;;;;;;24.78;42.45;101134.50;4234749;28;22785;-69
2022/10/17 08:56:27;;;;;;;29.63;18.47;;;;;;;23.46;46.63;101114.25;4245506;28;20234;-70
2022/10/17 08:59:27;;;;;;;33.50;18.23;;;;;;;22.50;50.73;101104.72;4253151;28;20448;-69
2022/10/17 09:02:02;;;;;;;35.63;18.47;;;;;;;21.99;52.98;101095.22;4257460;28;20416;-67
2022/10/17 09:04:48;;;;;;;32.03;16.90;;;;;;;21.92;54.05;101097.91;4217430;28;21086;-70
2022/10/17 09:07:19;;;;;;;34.13;17.40;;;;;;;21.86;55.20;101098.72;4241448;28;20484;-67
2022/10/17 09:09:54;;;;;;;35.83;18.87;;;;;;;21.99;54.93;101097.94;4244555;28;20240;-71
2022/10/17 09:12:27;;;;;;;33.87;18.07;;;;;;;22.06;54.79;101100.66;4227601;28;20637;-68
2022/10/17 09:15:21;;;;;;;31.87;16.97;;;;;;;21.84;54.96;101100.78;4261346;28;20237;-69
2022/10/17 09:17:58;;;;;;;34.37;16.83;;;;;;;21.80;55.29;101087.88;4300210;28;20237;-68
2022/10/17 09:20:31;;;;;;;38.03;17.33;;;;;;;21.92;55.37;101091.66;4243420;28;20255;-75
2022/10/17 09:23:19;;;;;;;34.10;17.60;;;;;;;21.56;56.59;101091.94;4210327;28;22277;-68
2022/10/17 09:25:48;;;;;;;29.77;17.00;;;;;;;21.77;56.12;101093.69;4233159;28;20241;-68
2022/10/17 09:28:36;;;;;;;29.17;16.17;;;;;;;21.84;55.45;101092.66;4227463;28;20252;-69
2022/10/17 09:31:06;;;;;;;30.67;17.60;;;;;;;21.45;57.51;101085.22;4204412;28;20774;-68
2022/10/17 09:33:40;;;;;;;31.47;17.23;;;;;;;21.44;57.53;101083.53;4246032;28;20436;-65
2022/10/17 09:36:20;;;;;;;29.50;15.77;;;;;;;21.37;58.30;101083.47;4245109;28;20573;-68
2022/10/17 09:38:56;;;;;;;29.27;15.60;;;;;;;21.36;57.85;101080.97;4240287;28;20631;-67
2022/10/17 09:41:28;;;;;;;31.07;16.20;;;;;;;21.33;58.26;101076.81;4210254;28;20229;-69
2022/10/17 09:44:22;;;;;;;28.03;16.03;;;;;;;21.30;58.82;101074.47;4227532;28;20289;-68
2022/10/17 09:47:07;;;;;;;31.17;15.80;;;;;;;21.26;58.74;101084.06;4237997;28;20428;-72
2022/10/17 09:49:37;;;;;;;27.93;15.37;;;;;;;21.33;57.96;101075.94;4214062;28;20251;-69
2022/10/17 09:52:08;;;;;;;24.73;15.87;;;;;;;21.41;57.31;101068.53;4243524;28;20238;-68
2022/10/17 09:54:43;;;;;;;31.03;15.70;;;;;;;21.45;56.86;101066.28;4250544;28;20533;-67
2022/10/17 09:57:11;;;;;;;30.07;15.53;;;;;;;21.54;57.28;101066.91;4211545;28;21716;-69
2022/10/17 09:59:43;;;;;;;25.17;14.60;;;;;;;21.57;57.04;101067.34;4234866;28;21361;-71
2022/10/17 10:02:12;;;;;;;28.57;15.17;;;;;;;21.85;56.05;101067.25;4207368;28;20230;-68
2022/10/17 10:05:03;;;;;;;24.50;14.60;;;;;;;21.66;55.89;101068.03;4249930;28;20230;-67
2022/10/17 10:07:37;;;;;;;24.43;14.70;;;;;;;21.72;55.69;101067.19;4223676;28;22110;-68
2022/10/17 10:10:07;;;;;;;24.83;15.50;;;;;;;21.59;56.08;101061.75;4208377;28;20347;-69
2022/10/17 10:12:36;;;;;;;29.53;15.17;;;;;;;21.74;56.29;101067.00;4224485;28;20566;-70
2022/10/17 10:15:33;;;;;;;25.27;14.23;;;;;;;21.77;55.75;101061.16;4223166;28;22922;-69
2022/10/17 10:18:00;;;;;;;24.73;14.30;;;;;;;21.77;55.34;101055.75;4232381;28;20342;-67
2022/10/17 10:20:35;;;;;;;21.47;14.30;;;;;;;21.93;55.05;101058.91;4230597;28;20337;-70
2022/10/17 10:23:16;;;;;;;31.97;15.30;;;;;;;21.83;55.90;101057.66;4242027;28;20236;-70
2022/10/17 10:26:00;;;;;;;29.20;14.23;;;;;;;21.91;55.62;101058.31;4225817;28;20245;-71
2022/10/17 10:28:33;;;;;;;23.53;14.37;;;;;;;21.99;55.21;101059.16;4224560;28;20235;-69
2022/10/17 10:31:03;;;;;;;26.07;13.57;;;;;;;22.18;54.60;101061.06;4259123;28;22203;-68
2022/10/17 10:33:32;;;;;;;26.73;12.83;;;;;;;22.19;54.00;101054.59;4226203;28;20304;-72
2022/10/17 10:36:00;;;;;;;28.53;13.73;;;;;;;22.16;53.80;101060.44;4202292;28;20251;-70
2022/10/17 10:38:28;;;;;;;24.33;12.93;;;;;;;22.09;53.90;101063.13;4237698;28;20234;-69
2022/10/17 10:41:06;;;;;;;20.33;12.83;;;;;;;21.80;55.08;101061.63;4216403;28;20244;-69
2022/10/17 10:43:36;;;;;;;23.03;12.10;;;;;;;21.86;54.71;101055.34;4237355;28;20296;-69
2022/10/17 10:46:15;;;;;;;24.63;13.03;;;;;;;21.81;55.41;101047.00;4222311;28;22999;-68
2022/10/17 10:48:50;;;;;;;28.40;15.43;;;;;;;21.87;55.54;101046.22;4275661;28;20238;-70
2022/10/17 10:51:21;;;;;;;20.93;12.43;;;;;;;22.10;54.69;101055.81;4226853;28;21996;-70
2022/10/17 10:53:57;;;;;;;20.23;11.43;;;;;;;22.24;53.41;101057.56;4246792;28;22055;-51
2022/10/17 10:56:46;;;;;;;26.07;13.07;;;;;;;22.02;53.43;101050.63;4244834;28;20375;-74
2022/10/17 10:59:38;;;;;;;26.00;13.17;;;;;;;21.74;54.47;101051.56;4232304;28;20612;-71
2022/10/17 11:02:16;;;;;;;27.60;13.53;;;;;;;21.77;55.01;101058.47;4225875;28;21249;-71
2022/10/17 11:04:45;;;;;;;25.27;12.67;;;;;;;21.80;54.77;101055.38;4216560;28;22691;-71
2022/10/17 11:07:18;;;;;;;21.57;12.27;;;;;;;21.78;54.01;101055.56;4212374;28;23569;-73
2022/10/17 11:09:51;;;;;;;26.57;12.93;;;;;;;21.54;54.70;101056.94;4210621;28;21418;-70
2022/10/17 11:12:26;;;;;;;25.63;12.83;;;;;;;21.50;54.72;101056.50;4221108;28;20232;-71
2022/10/17 11:15:05;;;;;;;20.97;12.53;;;;;;;21.47;54.91;101054.19;4239177;28;20240;-70
2022/10/17 11:17:39;;;;;;;21.87;12.97;;;;;;;21.46;54.86;101038.13;4236479;28;20348;-69
2022/10/17 11:20:14;;;;;;;20.77;12.20;;;;;;;21.35;55.51;101044.09;4222162;28;20286;-68